Time;durP1;ratioP1;P1;durP2;ratioP2;P2;SDS_P1;SDS_P2;PMS_P1;PMS_P2;Temp;Humidity;BMP_temperature;BMP_pressure;BME280_temperature;BME280_humidity;BME280_pressure;Samples;Min_cycle;Max_cycle;Signal;HPM_P1;HPM_P2
2021/04/16 07:44:08;;;;;;;8.58;7.58;;;;;;;2.73;80.51;96678.76;1839151;77;23083;-77
2021/04/16 07:46:38;;;;;;;8.68;7.78;;;;;;;2.74;80.31;96671.41;1796590;77;21111;-77
2021/04/16 07:49:15;;;;;;;9.00;8.10;;;;;;;2.74;80.29;96671.41;1816068;77;21685;-77
2021/04/16 07:51:46;;;;;;;9.73;8.73;;;;;;;2.77;80.39;96675.02;1814262;77;21070;-75
2021/04/16 07:54:19;;;;;;;10.23;8.18;;;;;;;2.74;80.09;96677.82;1819485;77;21127;-77
2021/04/16 07:56:45;;;;;;;8.35;7.55;;;;;;;2.71;80.15;96675.04;1811681;77;21063;-77
2021/04/16 07:59:14;;;;;;;8.08;6.40;;;;;;;2.70;80.02;96676.45;1821036;77;21122;-77
2021/04/16 08:01:45;;;;;;;9.98;8.18;;;;;;;2.73;79.96;96676.20;1766284;80;21094;-77
2021/04/16 08:04:23;;;;;;;11.38;9.38;;;;;;;2.76;80.10;96677.69;1751158;79;21312;-80
2021/04/16 08:06:51;;;;;;;9.48;8.35;;;;;;;2.81;80.00;96677.67;1749479;79;21256;-75
2021/04/16 08:09:30;;;;;;;10.43;9.33;;;;;;;2.82;79.93;96679.77;1761903;80;21101;-90
2021/04/16 08:12:13;;;;;;;13.10;10.13;;;;;;;2.84;80.08;96684.30;1753886;79;21304;-77
2021/04/16 08:14:42;;;;;;;10.03;8.00;;;;;;;2.84;79.69;96681.73;1748024;79;21778;-75
2021/04/16 08:17:27;;;;;;;10.48;8.65;;;;;;;2.75;79.41;96682.01;1767968;79;21113;-75
2021/04/16 08:19:53;;;;;;;10.70;9.53;;;;;;;2.73;79.57;96688.21;1743608;79;21297;-77
2021/04/16 08:22:32;;;;;;;9.40;8.38;;;;;;;2.75;79.81;96679.45;1768583;79;21138;-75
2021/04/16 08:25:01;;;;;;;9.75;8.00;;;;;;;2.80;79.85;96678.62;1766255;79;21117;-77
2021/04/16 08:27:44;;;;;;;12.63;9.75;;;;;;;2.77;79.57;96681.44;1745967;79;21115;-77
2021/04/16 08:30:23;;;;;;;12.70;9.93;;;;;;;2.72;79.90;96683.55;1743515;79;21078;-75
2021/04/16 08:33:00;;;;;;;12.28;10.75;;;;;;;2.71;80.03;96680.64;1761593;79;21122;-75
2021/04/16 08:35:33;;;;;;;15.15;11.43;;;;;;;2.72;80.02;96680.98;1767707;79;21094;-77
2021/04/16 08:38:05;;;;;;;9.68;7.20;;;;;;;2.78;80.04;96681.78;1747744;79;21163;-77
2021/04/16 08:40:36;;;;;;;11.15;9.38;;;;;;;2.75;79.54;96681.20;1748373;79;21236;-75
2021/04/16 08:43:03;;;;;;;11.60;9.13;;;;;;;2.72;79.61;96684.83;1753877;79;21372;-75
2021/04/16 08:45:33;;;;;;;10.48;9.38;;;;;;;2.61;79.58;96683.63;1747534;80;21121;-77
2021/04/16 08:48:12;;;;;;;11.85;10.03;;;;;;;2.57;79.80;96677.10;1738302;80;21121;-75
2021/04/16 08:50:38;;;;;;;11.15;9.38;;;;;;;2.51;79.92;96689.97;1752572;80;21158;-74
2021/04/16 08:53:04;;;;;;;13.55;9.95;;;;;;;2.49;80.18;96693.59;1736071;81;21121;-75
2021/04/16 08:55:40;;;;;;;18.70;12.55;;;;;;;2.54;80.23;96690.19;1739596;80;21094;-75
2021/04/16 08:58:35;;;;;;;11.73;10.53;;;;;;;2.52;79.98;96695.44;1747542;80;21097;-75
2021/04/16 09:01:14;;;;;;;14.10;12.65;;;;;;;2.50;80.05;96680.65;1740627;80;21122;-75
2021/04/16 09:03:54;;;;;;;13.53;11.50;;;;;;;2.52;80.03;96694.63;1758043;80;21110;-77
2021/04/16 09:06:35;;;;;;;18.85;14.53;;;;;;;2.52;80.02;96694.16;1751243;80;21078;-77
2021/04/16 09:09:04;;;;;;;14.45;10.78;;;;;;;2.52;80.12;96695.44;1752814;80;21098;-78
2021/04/16 09:11:47;;;;;;;14.13;10.98;;;;;;;2.49;80.17;96696.16;1720313;81;21082;-78
2021/04/16 09:14:34;;;;;;;13.28;10.35;;;;;;;2.46;80.15;96697.70;1755895;81;21252;-79
2021/04/16 09:17:05;;;;;;;13.50;11.78;;;;;;;2.41;80.22;96703.98;1758238;81;21247;-76
2021/04/16 09:19:39;;;;;;;14.10;11.70;;;;;;;2.50;80.47;96704.20;1742799;80;21341;-76
2021/04/16 09:22:12;;;;;;;15.55;11.95;;;;;;;2.61;80.47;96704.16;1740011;80;21146;-76
2021/04/16 09:24:55;;;;;;;12.15;10.90;;;;;;;2.61;80.30;96702.88;1743161;80;21220;-80
2021/04/16 09:27:39;;;;;;;16.32;13.32;;;;;;;2.58;80.31;96707.76;1737879;80;21094;-78
2021/04/16 09:30:10;;;;;;;16.97;11.28;;;;;;;2.58;80.41;96700.06;1753894;80;21106;-76
2021/04/16 09:32:51;;;;;;;12.98;11.33;;;;;;;2.58;80.23;96703.09;1742069;80;21102;-76
2021/04/16 09:35:28;;;;;;;16.27;13.62;;;;;;;2.61;80.29;96704.97;1748930;80;21110;-79
2021/04/16 09:38:25;;;;;;;13.65;11.75;;;;;;;2.64;80.31;96713.70;1751533;80;21114;-79
2021/04/16 09:41:17;;;;;;;15.63;13.83;;;;;;;2.69;80.19;96714.59;1742726;80;21101;-79
2021/04/16 09:43:44;;;;;;;16.32;13.18;;;;;;;2.72;80.43;96705.36;1735559;80;21102;-78
2021/04/16 09:46:35;;;;;;;15.60;13.10;;;;;;;2.73;80.32;96704.42;1705883;80;21162;-76
2021/04/16 09:49:29;;;;;;;17.65;13.35;;;;;;;2.56;80.26;96680.14;1730686;80;21154;-76
2021/04/16 09:51:58;;;;;;;16.85;13.15;;;;;;;2.77;80.33;96710.14;1743075;80;21367;-78
2021/04/16 09:54:32;;;;;;;14.25;12.15;;;;;;;2.81;80.09;96707.19;1763313;79;21380;-78
2021/04/16 09:57:08;;;;;;;18.48;14.55;;;;;;;2.79;79.97;96707.78;1752410;79;21319;-76
2021/04/16 09:59:41;;;;;;;17.30;15.15;;;;;;;2.80;80.14;96701.72;1765975;80;21423;-78
2021/04/16 10:02:18;;;;;;;14.98;13.30;;;;;;;2.80;80.15;96705.56;1746979;80;21181;-78
2021/04/16 10:05:21;;;;;;;17.35;14.40;;;;;;;2.77;79.98;96703.25;1763186;80;21098;-77
2021/04/16 10:07:57;;;;;;;17.60;14.03;;;;;;;2.78;80.12;96706.63;1750645;79;21094;-78
2021/04/16 10:10:32;;;;;;;16.17;12.13;;;;;;;2.75;80.09;96706.86;1759301;79;21106;-78
2021/04/16 10:13:14;;;;;;;16.48;14.23;;;;;;;2.77;80.06;96705.01;1755519;79;22157;-80
2021/04/16 10:15:43;;;;;;;17.25;13.38;;;;;;;2.81;80.25;96698.67;1762441;79;21152;-76
2021/04/16 10:18:37;;;;;;;16.32;14.23;;;;;;;2.86;80.29;96699.92;1751931;79;21511;-76
2021/04/16 10:21:11;;;;;;;20.90;17.48;;;;;;;2.88;80.29;96701.88;1758856;80;21216;-78
2021/04/16 10:23:41;;;;;;;16.17;13.58;;;;;;;2.83;80.14;96702.73;1746158;80;21360;-79
2021/04/16 10:56:12;;;;;;;14.38;12.90;;;;;;;2.91;79.89;96703.38;1810082;78;22561;-75
2021/04/16 12:41:31;;;;;;;12.18;10.68;;;;;;;2.94;81.82;96718.55;1809820;77;23079;-77
2021/04/16 12:43:57;;;;;;;14.18;11.12;;;;;;;2.96;81.70;96722.61;1809247;78;21118;-75
2021/04/16 12:46:31;;;;;;;14.38;12.73;;;;;;;2.88;81.61;96721.60;1734041;80;21230;-75
2021/04/16 12:49:04;;;;;;;21.60;14.68;;;;;;;2.86;81.83;96723.02;1769286;78;21316;-75
2021/04/16 12:51:31;;;;;;;13.18;10.78;;;;;;;2.85;81.87;96724.42;1770151;78;21278;-75
2021/04/16 12:53:57;;;;;;;10.68;8.95;;;;;;;2.84;81.89;96721.52;1792603;78;21236;-75
2021/04/16 12:56:34;;;;;;;10.05;7.90;;;;;;;2.86;81.90;96725.58;1763537;78;21101;-75
2021/04/16 12:59:05;;;;;;;10.70;7.47;;;;;;;2.89;81.95;96721.95;1774879;78;21097;-75
2021/04/16 13:01:31;;;;;;;10.35;9.25;;;;;;;2.92;81.89;96722.97;1786550;78;21134;-75
2021/04/16 13:03:58;;;;;;;10.72;9.23;;;;;;;2.87;81.94;96725.11;1789496;78;21104;-77
2021/04/16 13:06:37;;;;;;;10.60;8.28;;;;;;;2.87;82.17;96725.92;1740978;78;21087;-77
2021/04/16 13:09:08;;;;;;;10.38;8.90;;;;;;;2.86;82.08;96720.45;1724999;82;21078;-76
2021/04/16 13:11:33;;;;;;;11.80;10.60;;;;;;;2.85;82.13;96719.30;1724258;81;21123;-77
2021/04/16 13:13:59;;;;;;;12.75;10.95;;;;;;;2.82;82.20;96719.55;1746272;80;21086;-77
2021/04/16 13:16:26;;;;;;;15.13;11.50;;;;;;;2.85;82.27;96712.88;1735541;80;21327;-78
2021/04/16 13:18:54;;;;;;;15.85;12.68;;;;;;;2.91;82.29;96714.45;1733982;80;22242;-77
2021/04/16 13:21:38;;;;;;;33.85;24.75;;;;;;;2.95;82.25;96715.05;1738846;80;21356;-77
2021/04/16 13:24:05;;;;;;;28.77;20.20;;;;;;;2.97;82.23;96721.67;1708014;81;21279;-75
2021/04/16 13:26:32;;;;;;;10.55;9.45;;;;;;;2.91;82.21;96720.06;1753427;80;21090;-77
2021/04/16 13:28:58;;;;;;;13.88;12.23;;;;;;;2.86;82.22;96720.92;1739806;80;21121;-75
2021/04/16 13:31:27;;;;;;;22.90;17.75;;;;;;;2.78;82.27;96720.75;1745932;80;21233;-75
2021/04/16 13:33:53;;;;;;;15.88;13.30;;;;;;;2.81;82.41;96721.30;1721690;82;21085;-77
2021/04/16 13:36:25;;;;;;;15.90;13.13;;;;;;;2.81;82.35;96726.91;1737330;80;21094;-77
2021/04/16 13:38:51;;;;;;;16.12;14.35;;;;;;;2.80;82.33;96722.24;1748178;80;21474;-75
2021/04/16 13:41:26;;;;;;;19.02;15.93;;;;;;;2.78;82.32;96722.84;1726859;81;21126;-77
2021/04/16 13:43:53;;;;;;;16.52;13.80;;;;;;;2.75;82.51;96722.25;1724842;81;21123;-76
2021/04/16 13:46:23;;;;;;;19.70;14.47;;;;;;;2.70;82.48;96729.05;1715793;81;21111;-75
2021/04/16 13:48:49;;;;;;;19.10;15.70;;;;;;;2.73;82.89;96722.38;1759965;80;21205;-75
2021/04/16 13:51:18;;;;;;;15.38;12.35;;;;;;;2.76;82.66;96725.97;1765679;80;21150;-77
2021/04/16 13:53:44;;;;;;;14.07;12.20;;;;;;;2.78;82.75;96722.03;1765187;81;21123;-77
2021/04/16 13:56:10;;;;;;;20.20;12.93;;;;;;;2.74;82.48;96725.29;1766884;79;21110;-77
2021/04/16 13:58:36;;;;;;;18.50;12.78;;;;;;;2.75;82.63;96712.80;1771639;80;21356;-75
2021/04/16 14:01:03;;;;;;;13.28;11.65;;;;;;;2.75;82.66;96711.52;1773498;80;21303;-75
2021/04/16 14:03:36;;;;;;;20.52;14.95;;;;;;;2.74;82.69;96715.50;1771532;79;21099;-75
2021/04/16 14:06:06;;;;;;;15.25;12.98;;;;;;;2.72;82.72;96716.91;1758183;80;21071;-75
2021/04/16 14:08:40;;;;;;;16.07;13.60;;;;;;;2.76;82.70;96718.75;1756150;81;21099;-77
2021/04/16 14:11:06;;;;;;;17.00;14.07;;;;;;;2.82;82.73;96714.42;1750071;80;21158;-77
2021/04/16 14:13:33;;;;;;;15.08;12.33;;;;;;;2.84;82.67;96716.39;1751757;79;21103;-77
2021/04/16 14:16:11;;;;;;;13.60;12.10;;;;;;;2.83;82.56;96714.29;1755570;80;21173;-78
2021/04/16 14:18:41;;;;;;;16.10;12.37;;;;;;;2.80;82.69;96712.45;1751089;79;21229;-75
2021/04/16 14:21:13;;;;;;;27.32;25.10;;;;;;;2.78;82.72;96715.14;1757423;80;21261;-75
2021/04/16 14:23:39;;;;;;;;;;;;;;;2.73;82.84;96715.16;1759288;80;21118;-75
2021/04/16 14:26:05;;;;;;;23.35;21.12;;;;;;;2.71;82.73;96724.27;1751450;80;20110;-75
2021/04/16 14:28:31;;;;;;;20.57;18.65;;;;;;;2.73;82.82;96722.85;1752866;79;21165;-77
2021/04/16 14:30:58;;;;;;;24.98;22.75;;;;;;;2.75;82.86;96715.37;1744253;81;21111;-77
2021/04/16 14:33:27;;;;;;;23.67;20.12;;;;;;;2.74;82.79;96717.59;1752880;79;21083;-77
2021/04/16 14:35:53;;;;;;;50.92;45.73;;;;;;;2.74;82.83;96718.06;1721483;81;21098;-76
2021/04/16 14:38:20;;;;;;;69.60;53.45;;;;;;;2.68;82.84;96723.23;1747443;80;21237;-77
2021/04/16 14:40:46;;;;;;;30.00;24.82;;;;;;;2.69;83.00;96726.14;1760114;79;21102;-75
2021/04/16 14:43:12;;;;;;;17.32;14.85;;;;;;;2.69;82.89;96724.86;1759012;79;21305;-75
2021/04/16 14:45:43;;;;;;;22.15;19.98;;;;;;;2.69;83.04;96722.30;1737057;80;21443;-77
2021/04/16 14:48:09;;;;;;;18.82;17.00;;;;;;;2.65;82.78;96717.89;1772143;79;21129;-77
2021/04/16 14:50:35;;;;;;;21.15;18.55;;;;;;;2.64;82.85;96721.39;1770444;79;21329;-75
2021/04/16 14:53:06;;;;;;;19.45;17.35;;;;;;;2.67;83.03;96725.45;1786629;80;21212;-78
2021/04/16 14:55:34;;;;;;;32.00;28.70;;;;;;;2.66;83.01;96724.64;1775548;79;21134;-77
2021/04/16 14:58:00;;;;;;;33.75;30.52;;;;;;;2.67;83.14;96728.02;1762048;79;21151;-80
2021/04/16 15:00:30;;;;;;;43.63;29.90;;;;;;;2.61;83.16;96727.25;1759204;79;21070;-75
2021/04/16 15:02:57;;;;;;;25.92;19.92;;;;;;;2.60;83.29;96729.00;1766304;79;21105;-75
2021/04/16 15:05:23;;;;;;;33.33;22.05;;;;;;;2.59;83.26;96735.04;1762695;79;21063;-77
2021/04/16 15:08:00;;;;;;;23.47;18.67;;;;;;;2.61;83.22;96734.94;1764684;80;21082;-77
2021/04/16 15:10:30;;;;;;;21.17;18.90;;;;;;;2.59;83.20;96732.95;1764002;79;21236;-75
2021/04/16 15:12:56;;;;;;;37.50;29.15;;;;;;;2.63;83.31;96735.62;1768669;79;21106;-77
2021/04/16 15:15:42;;;;;;;23.38;20.10;;;;;;;2.68;83.33;96734.31;1772589;79;21283;-75
2021/04/16 15:18:19;;;;;;;22.85;18.60;;;;;;;2.68;83.29;96728.36;1787862;79;21233;-75
2021/04/16 15:20:47;;;;;;;82.27;48.25;;;;;;;2.68;83.36;96733.50;1777930;80;21131;-77
2021/04/16 15:23:14;;;;;;;28.57;21.15;;;;;;;2.65;83.29;96732.00;1757691;79;21220;-77
2021/04/16 15:25:46;;;;;;;75.37;45.78;;;;;;;2.61;83.23;96734.47;1779383;79;21342;-77
2021/04/16 15:28:33;;;;;;;194.02;93.97;;;;;;;2.61;83.23;96731.09;1771022;79;21060;-77
2021/04/16 15:31:12;;;;;;;237.57;93.30;;;;;;;2.58;83.21;96736.45;1787707;80;21081;-78
2021/04/16 15:48:20;;;;;;;29.35;20.85;;;;;;;2.43;83.57;96732.08;1762124;80;21087;-78
2021/04/16 15:50:50;;;;;;;73.52;49.10;;;;;;;2.44;83.63;96731.61;1752656;79;21095;-76
2021/04/16 15:53:17;;;;;;;44.00;28.98;;;;;;;2.49;83.68;96733.36;1765217;79;21420;-75
2021/04/16 15:55:43;;;;;;;36.00;25.70;;;;;;;2.49;83.59;96727.75;1764656;79;21130;-75
2021/04/16 15:58:12;;;;;;;30.00;24.37;;;;;;;2.49;83.59;96728.23;1765361;79;21443;-75
2021/04/16 16:00:42;;;;;;;23.22;20.45;;;;;;;2.47;83.62;96725.79;1769973;79;21103;-76
2021/04/16 16:03:08;;;;;;;45.03;33.73;;;;;;;2.46;83.64;96741.30;1764693;79;21142;-76
2021/04/16 16:05:39;;;;;;;31.07;25.02;;;;;;;2.46;83.71;96742.58;1766448;79;21119;-75
2021/04/16 16:08:05;;;;;;;64.10;40.40;;;;;;;2.44;83.60;96737.58;1755840;79;21321;-75
2021/04/16 16:10:32;;;;;;;37.35;26.35;;;;;;;2.44;83.61;96735.45;1768943;79;21217;-75
2021/04/16 16:13:01;;;;;;;42.23;29.95;;;;;;;2.46;83.61;96738.27;1765754;79;21229;-75
2021/04/16 16:15:34;;;;;;;31.75;23.18;;;;;;;2.48;83.56;96735.11;1748731;79;21345;-75
2021/04/16 16:18:03;;;;;;;26.85;21.40;;;;;;;2.50;83.60;96738.36;1749421;79;21240;-76
2021/04/16 16:20:31;;;;;;;24.72;18.98;;;;;;;2.50;83.52;96738.83;1769360;79;21087;-76
2021/04/16 16:22:58;;;;;;;31.35;23.52;;;;;;;2.45;83.55;96739.67;1763670;79;21424;-76
2021/04/16 16:25:24;;;;;;;39.45;32.15;;;;;;;2.41;83.62;96746.30;1777565;79;21067;-78
2021/04/16 16:27:51;;;;;;;26.93;19.20;;;;;;;2.39;83.56;96746.91;1765744;79;21126;-78
2021/04/16 16:30:22;;;;;;;24.95;20.70;;;;;;;2.36;83.52;96742.02;1760977;79;21115;-78
2021/04/16 16:32:48;;;;;;;32.60;25.52;;;;;;;2.38;83.71;96742.70;1763440;79;21367;-77
2021/04/16 16:35:23;;;;;;;27.10;23.07;;;;;;;2.42;83.72;96743.27;1760531;79;21153;-77
2021/04/16 16:37:49;;;;;;;40.38;35.03;;;;;;;2.46;83.72;96740.83;1766199;79;21083;-77
2021/04/16 16:40:16;;;;;;;44.18;31.68;;;;;;;2.47;83.70;96745.49;1749952;79;21155;-77
2021/04/16 16:42:45;;;;;;;47.03;30.57;;;;;;;2.44;83.65;96738.02;1763025;79;21356;-77
2021/04/16 16:45:22;;;;;;;30.88;25.48;;;;;;;2.39;83.65;96740.95;1763775;79;21133;-77
2021/04/16 16:47:49;;;;;;;26.95;21.80;;;;;;;2.39;83.68;96740.95;1775306;80;21099;-78
2021/04/16 16:50:18;;;;;;;26.52;21.97;;;;;;;2.42;83.67;96745.84;1695110;82;21123;-77
2021/04/16 16:52:44;;;;;;;23.60;19.62;;;;;;;2.40;83.66;96743.87;1708835;83;21118;-77
2021/04/16 16:55:12;;;;;;;35.50;26.30;;;;;;;2.35;83.79;96744.24;1724829;82;21152;-75
2021/04/16 16:57:38;;;;;;;41.77;32.40;;;;;;;2.30;83.83;96738.67;1724173;82;21138;-75
2021/04/16 17:00:10;;;;;;;32.40;25.68;;;;;;;2.30;84.01;96740.42;1736292;80;21144;-75
2021/04/16 17:02:36;;;;;;;36.28;28.02;;;;;;;2.26;83.90;96744.14;1735973;81;21262;-75
2021/04/16 17:05:05;;;;;;;27.32;22.22;;;;;;;2.26;84.00;96752.65;1737362;80;21266;-75
2021/04/16 17:07:31;;;;;;;36.23;28.30;;;;;;;2.29;84.06;96752.44;1738211;80;21879;-75
2021/04/16 17:09:59;;;;;;;32.90;27.73;;;;;;;2.31;83.99;96751.84;1723444;81;21127;-75
2021/04/16 17:12:26;;;;;;;24.45;21.10;;;;;;;2.30;84.08;96751.49;1746215;80;21231;-75
2021/04/16 17:14:52;;;;;;;34.50;30.43;;;;;;;2.29;84.19;96751.62;1710857;81;21080;-75
2021/04/16 17:17:19;;;;;;;50.52;38.92;;;;;;;2.22;84.15;96752.55;1731287;80;21139;-75
2021/04/16 17:19:45;;;;;;;38.65;28.87;;;;;;;2.24;84.19;96753.71;1734086;81;21235;-75
2021/04/16 17:22:11;;;;;;;29.45;24.87;;;;;;;2.22;84.14;96753.02;1699988;82;21334;-75
2021/04/16 17:24:37;;;;;;;28.83;23.50;;;;;;;2.24;84.17;96758.84;1723235;80;21164;-75
2021/04/16 17:27:07;;;;;;;34.00;26.45;;;;;;;2.27;84.14;96761.16;1733350;80;21618;-77
2021/04/16 17:29:38;;;;;;;32.30;26.02;;;;;;;2.28;84.18;96761.06;1707169;82;21124;-78
2021/04/16 17:32:05;;;;;;;34.95;27.25;;;;;;;2.28;84.25;96757.22;1722153;82;22266;-77
2021/04/16 17:34:31;;;;;;;41.10;31.62;;;;;;;2.26;84.28;96752.65;1698516;82;21407;-77
2021/04/16 17:36:57;;;;;;;38.42;27.87;;;;;;;2.23;84.25;96756.74;1727285;80;21245;-78
2021/04/16 17:39:25;;;;;;;47.43;37.33;;;;;;;2.22;84.23;96765.84;1730376;80;21229;-77
2021/04/16 17:42:01;;;;;;;31.15;27.80;;;;;;;2.24;84.28;96770.37;1735006;81;21127;-77
2021/04/16 17:44:33;;;;;;;37.90;29.55;;;;;;;2.22;84.34;96770.50;1757347;79;21102;-77
2021/04/16 17:47:03;;;;;;;44.58;33.67;;;;;;;2.18;84.34;96770.41;1761483;79;21122;-78
2021/04/16 17:49:32;;;;;;;32.93;26.45;;;;;;;2.14;84.41;96772.05;1754701;79;21087;-79
2021/04/16 17:51:58;;;;;;;30.17;23.30;;;;;;;2.11;84.59;96770.52;1756605;79;21118;-78
2021/04/16 17:54:24;;;;;;;34.53;26.05;;;;;;;2.11;84.58;96775.64;1763403;81;21083;-78
2021/04/16 17:56:50;;;;;;;31.10;24.57;;;;;;;2.13;84.55;96780.21;1754599;79;21484;-78
2021/04/16 17:59:21;;;;;;;31.12;24.55;;;;;;;2.15;84.60;96786.50;1744007;79;21142;-77
2021/04/16 18:04:26;;;;;;;48.33;38.30;;;;;;;2.22;84.60;96785.88;1761177;79;22568;-75
2021/04/16 18:07:16;;;;;;;37.55;29.02;;;;;;;2.18;84.67;96784.97;1746945;80;21114;-75
2021/04/16 18:09:42;;;;;;;42.27;30.50;;;;;;;2.14;84.64;96783.12;1745359;80;21086;-76
2021/04/16 18:12:09;;;;;;;39.88;30.50;;;;;;;2.13;84.67;96789.65;1731556;82;21185;-75
2021/04/16 18:14:35;;;;;;;29.05;23.87;;;;;;;2.12;84.65;96787.55;1727780;80;21133;-76
2021/04/16 18:17:01;;;;;;;32.67;25.75;;;;;;;2.10;84.67;96792.77;1724762;80;21420;-75
2021/04/16 18:19:27;;;;;;;50.25;37.53;;;;;;;2.09;84.62;96791.61;1729031;80;21208;-76
2021/04/16 18:21:53;;;;;;;53.65;40.95;;;;;;;2.09;84.61;96796.74;1735609;80;21071;-76
2021/04/16 18:24:34;;;;;;;35.40;29.50;;;;;;;2.12;84.66;96795.25;1732497;80;21287;-76
2021/04/16 18:27:11;;;;;;;34.80;29.00;;;;;;;2.09;84.63;96795.45;1741504;80;21110;-79
2021/04/16 18:29:38;;;;;;;42.10;30.77;;;;;;;2.09;84.77;96798.02;1736880;80;21134;-75
2021/04/16 18:32:05;;;;;;;43.17;38.53;;;;;;;2.08;84.79;96801.52;1728610;81;21106;-78
2021/04/16 18:34:31;;;;;;;33.83;29.42;;;;;;;2.09;84.75;96802.68;1742442;80;21106;-78
2021/04/16 18:39:43;;;;;;;32.28;25.52;;;;;;;2.21;84.80;96797.55;1804143;78;23011;-76
2021/04/16 18:42:09;;;;;;;24.10;19.63;;;;;;;2.18;84.70;96805.01;1776755;80;21249;-78
2021/04/16 18:44:40;;;;;;;27.62;21.20;;;;;;;2.12;84.92;96800.37;1747055;81;21090;-78
2021/04/16 18:47:08;;;;;;;34.70;26.07;;;;;;;2.06;85.07;96805.48;1714638;81;21157;-78
2021/04/16 18:49:34;;;;;;;39.95;29.95;;;;;;;2.02;85.09;96809.23;1726327;82;21439;-78
2021/04/16 18:52:32;;;;;;;36.55;29.25;;;;;;;2.03;85.22;96808.30;1725569;82;21141;-76
2021/04/16 18:54:59;;;;;;;26.73;22.40;;;;;;;2.02;85.05;96809.23;1731540;82;21134;-76
2021/04/16 18:57:24;;;;;;;35.80;27.10;;;;;;;2.04;85.01;96811.67;1723607;82;21566;-78
2021/04/16 18:59:51;;;;;;;35.58;30.35;;;;;;;2.06;85.10;96808.05;1728855;82;21138;-78
2021/04/16 19:02:19;;;;;;;36.65;27.75;;;;;;;2.07;85.06;96805.02;1734294;81;21381;-78
2021/04/16 19:04:46;;;;;;;46.30;35.50;;;;;;;2.07;85.04;96812.71;1748522;81;21087;-79
2021/04/16 19:07:14;;;;;;;34.95;26.93;;;;;;;2.07;85.08;96810.96;1745412;81;21466;-78
2021/04/16 19:09:50;;;;;;;40.15;31.05;;;;;;;2.08;85.10;96811.77;1744827;81;21265;-78
2021/04/16 19:12:16;;;;;;;36.10;28.40;;;;;;;2.08;85.03;96807.46;1739568;81;21114;-78
2021/04/16 19:14:42;;;;;;;36.77;27.80;;;;;;;2.12;84.93;96805.97;1744709;81;21116;-78
2021/04/16 19:17:12;;;;;;;32.38;26.40;;;;;;;2.12;84.90;96803.41;1742390;81;21160;-78
2021/04/16 19:19:39;;;;;;;33.73;25.45;;;;;;;2.16;84.91;96802.22;1733757;81;21109;-78
2021/04/16 19:22:10;;;;;;;28.45;22.65;;;;;;;2.18;84.93;96806.76;1740896;81;21085;-78
2021/04/16 19:24:46;;;;;;;31.37;23.52;;;;;;;2.14;84.97;96804.09;1732331;81;21135;-76
2021/04/16 19:27:13;;;;;;;31.62;23.38;;;;;;;2.08;84.96;96807.46;1744712;81;21354;-76
2021/04/16 19:29:39;;;;;;;28.85;22.32;;;;;;;2.09;84.99;96808.27;1733576;81;21282;-79
2021/04/16 19:32:09;;;;;;;28.10;21.80;;;;;;;2.09;84.96;96805.71;1734519;81;22164;-76
2021/04/16 19:34:35;;;;;;;30.82;22.70;;;;;;;2.07;85.03;96807.11;1749188;81;21147;-76
2021/04/16 19:37:04;;;;;;;35.60;24.55;;;;;;;2.09;85.03;96803.15;1741524;81;21353;-76
2021/04/16 19:39:35;;;;;;;31.23;23.27;;;;;;;2.09;85.00;96804.43;1730455;81;21336;-76
2021/04/16 19:42:02;;;;;;;40.50;31.53;;;;;;;2.04;85.07;96803.52;1735774;82;21102;-76
2021/04/16 19:44:30;;;;;;;34.70;24.72;;;;;;;2.02;85.10;96802.00;1765684;80;21241;-76
2021/04/16 19:46:57;;;;;;;143.90;95.55;;;;;;;1.98;85.00;96794.21;1750173;80;21126;-76
2021/04/16 20:18:30;;;;;;;28.73;22.70;;;;;;;1.74;85.50;96758.00;1758880;80;21063;-78
2021/04/16 20:20:59;;;;;;;25.30;20.32;;;;;;;1.93;85.48;96791.17;1767389;80;21146;-78
2021/04/16 20:23:30;;;;;;;24.63;19.65;;;;;;;1.96;85.48;96787.11;1712918;83;21120;-78
2021/04/16 20:26:00;;;;;;;24.98;20.50;;;;;;;1.96;85.38;96780.70;1712586;84;21099;-78
2021/04/16 20:28:26;;;;;;;29.67;25.02;;;;;;;1.99;85.55;96781.74;1749616;80;21229;-78
2021/04/16 20:30:54;;;;;;;55.70;41.10;;;;;;;2.01;85.51;96783.72;1761638;80;21403;-78
2021/04/16 20:33:31;;;;;;;57.25;40.92;;;;;;;2.03;85.66;96780.56;1776632;80;21067;-78
2021/04/16 20:35:58;;;;;;;29.95;20.95;;;;;;;2.00;85.48;96776.50;1713556;83;21102;-78
2021/04/16 20:38:24;;;;;;;29.10;22.13;;;;;;;2.02;85.48;96780.22;1759879;80;21150;-78
2021/04/16 20:40:57;;;;;;;43.25;31.50;;;;;;;2.05;85.55;96776.95;1748107;80;21119;-78
2021/04/16 20:43:28;;;;;;;35.90;27.17;;;;;;;2.10;85.45;96784.27;1759000;80;21118;-78
2021/04/16 20:45:55;;;;;;;29.05;22.73;;;;;;;2.09;85.38;96775.77;1771120;80;21138;-76
2021/04/16 20:48:23;;;;;;;31.37;23.80;;;;;;;2.08;85.32;96775.42;1767051;80;21075;-76
2021/04/16 20:50:50;;;;;;;37.63;26.50;;;;;;;2.03;85.44;96773.69;1757596;80;21290;-76
2021/04/16 20:53:15;;;;;;;38.42;31.17;;;;;;;2.03;85.53;96773.69;1756150;81;21108;-76
2021/04/16 20:55:55;;;;;;;40.50;29.05;;;;;;;2.02;85.47;96775.09;1767245;80;21091;-78
2021/04/16 20:58:24;;;;;;;38.25;32.10;;;;;;;2.01;85.37;96772.19;1769410;81;21233;-79
2021/04/16 21:00:49;;;;;;;30.72;25.02;;;;;;;2.03;85.46;96774.97;1758774;81;21150;-77
2021/04/16 21:03:41;;;;;;;33.92;24.92;;;;;;;2.03;85.46;96771.13;1753375;80;21115;-79
2021/04/16 21:06:28;;;;;;;33.37;25.40;;;;;;;2.00;85.50;96767.53;1773228;80;21103;-80
2021/04/16 21:08:57;;;;;;;43.83;31.50;;;;;;;2.01;85.62;96765.78;1693379;84;21150;-79
2021/04/16 21:11:28;;;;;;;47.55;28.42;;;;;;;1.99;85.61;96769.75;1758230;80;21486;-79
2021/04/16 21:13:55;;;;;;;62.00;35.33;;;;;;;2.01;85.55;96770.91;1769725;80;21277;-79
2021/04/16 21:16:24;;;;;;;53.73;34.75;;;;;;;2.06;85.67;96767.51;1763544;80;21126;-79
2021/04/16 21:18:58;;;;;;;49.50;38.17;;;;;;;2.12;85.71;96770.08;1760795;80;21118;-79
2021/04/16 21:21:31;;;;;;;38.48;29.18;;;;;;;2.14;85.58;96770.77;1758041;80;21110;-79
2021/04/16 21:24:01;;;;;;;38.45;27.07;;;;;;;2.12;85.52;96766.23;1768823;80;21463;-79
2021/04/16 21:26:38;;;;;;;34.67;27.25;;;;;;;2.10;85.57;96771.45;1766887;81;22095;-79
2021/04/16 21:29:06;;;;;;;36.50;25.52;;;;;;;2.08;85.51;96768.20;1757525;80;21328;-79
2021/04/16 21:31:48;;;;;;;33.70;24.50;;;;;;;2.09;85.46;96768.55;1764234;80;21095;-79
2021/04/16 21:34:25;;;;;;;42.48;31.20;;;;;;;2.13;85.46;96768.67;1763272;80;21117;-77
2021/04/16 21:36:51;;;;;;;44.75;30.08;;;;;;;2.19;85.66;96768.18;1748529;80;21102;-77
2021/04/16 21:39:19;;;;;;;30.62;21.50;;;;;;;2.17;85.48;96768.77;1753146;80;21289;-79
2021/04/16 21:41:45;;;;;;;31.97;24.67;;;;;;;2.12;85.53;96768.33;1767157;80;21103;-79
2021/04/16 21:44:12;;;;;;;33.75;26.00;;;;;;;2.10;85.57;96768.89;1758791;80;21305;-79
2021/04/16 21:46:47;;;;;;;26.85;20.72;;;;;;;2.12;85.59;96769.61;1712378;82;21079;-79
2021/04/16 21:49:35;;;;;;;28.27;24.07;;;;;;;2.17;85.60;96767.49;1718353;82;22116;-77
2021/04/16 21:52:29;;;;;;;34.92;26.30;;;;;;;2.21;85.41;96761.65;1767637;80;21091;-77
2021/04/16 21:54:59;;;;;;;29.80;22.10;;;;;;;2.23;85.44;96764.91;1756879;80;21134;-79
2021/04/16 21:57:25;;;;;;;28.17;20.52;;;;;;;2.20;85.42;96766.43;1742057;80;21225;-79
2021/04/16 21:59:51;;;;;;;25.08;18.20;;;;;;;2.19;85.40;96769.46;1752686;80;21219;-79
2021/04/16 22:02:25;;;;;;;27.37;20.92;;;;;;;2.14;85.44;96770.30;1763750;80;21098;-79
2021/04/16 22:05:00;;;;;;;26.23;19.87;;;;;;;2.15;85.50;96770.65;1758953;80;21086;-77
2021/04/16 22:07:33;;;;;;;30.08;21.30;;;;;;;2.19;85.44;96772.50;1778344;80;21232;-77
2021/04/16 22:10:20;;;;;;;21.77;17.02;;;;;;;2.22;85.41;96769.69;1767676;80;21115;-77
2021/04/16 22:12:51;;;;;;;21.30;14.28;;;;;;;2.18;85.25;96769.13;1739980;80;21309;-79
2021/04/16 22:15:31;;;;;;;18.20;13.22;;;;;;;2.15;85.39;96762.14;1762739;80;21398;-79
2021/04/16 22:18:02;;;;;;;20.32;16.02;;;;;;;2.12;85.46;96765.77;1780040;80;21122;-79
2021/04/16 22:20:31;;;;;;;17.77;13.72;;;;;;;2.11;85.50;96766.67;1763186;80;21285;-79
2021/04/16 22:22:58;;;;;;;21.10;14.83;;;;;;;2.10;85.49;96760.73;1752663;80;21095;-79
2021/04/16 22:25:35;;;;;;;23.18;16.87;;;;;;;2.13;85.47;96765.30;1758996;80;21225;-79
2021/04/16 22:28:37;;;;;;;27.80;20.92;;;;;;;2.17;85.61;96762.36;1761699;80;21224;-77
2021/04/16 22:31:17;;;;;;;25.43;21.55;;;;;;;2.20;85.50;96759.55;1755874;80;21317;-77